sensor_id;sensor_type;location;lat;lon;timestamp;P1;durP1;ratioP1;P2;durP2;ratioP2
76749;SDS011;66447;35.844;14.468;2023-08-24T00:14:45;44.72;;;39.40;;
76749;SDS011;66447;35.844;14.468;2023-08-24T00:29:46;44.08;;;39.22;;
76749;SDS011;66447;35.844;14.468;2023-08-24T00:44:47;44.05;;;39.38;;
76749;SDS011;66447;35.844;14.468;2023-08-24T00:59:48;38.00;;;33.90;;
76749;SDS011;66447;35.844;14.468;2023-08-24T01:30:08;23.13;;;20.67;;
76749;SDS011;66447;35.844;14.468;2023-08-24T01:45:09;23.07;;;18.97;;
76749;SDS011;66447;35.844;14.468;2023-08-24T02:00:11;18.97;;;17.00;;
76749;SDS011;66447;35.844;14.468;2023-08-24T02:15:13;22.97;;;18.87;;
76749;SDS011;66447;35.844;14.468;2023-08-24T02:30:13;18.02;;;16.13;;
76749;SDS011;66447;35.844;14.468;2023-08-24T02:45:14;20.03;;;15.70;;
76749;SDS011;66447;35.844;14.468;2023-08-24T03:00:15;18.05;;;16.15;;
76749;SDS011;66447;35.844;14.468;2023-08-24T03:15:17;26.27;;;21.03;;
76749;SDS011;66447;35.844;14.468;2023-08-24T03:30:18;26.70;;;19.02;;
76749;SDS011;66447;35.844;14.468;2023-08-24T03:45:20;17.53;;;15.73;;
76749;SDS011;66447;35.844;14.468;2023-08-24T04:00:22;18.20;;;16.30;;
76749;SDS011;66447;35.844;14.468;2023-08-24T04:15:23;20.48;;;16.70;;
76749;SDS011;66447;35.844;14.468;2023-08-24T04:30:23;19.55;;;17.48;;
76749;SDS011;66447;35.844;14.468;2023-08-24T04:45:24;25.17;;;20.73;;
76749;SDS011;66447;35.844;14.468;2023-08-24T05:00:25;32.40;;;22.92;;
76749;SDS011;66447;35.844;14.468;2023-08-24T05:15:26;28.90;;;25.23;;
76749;SDS011;66447;35.844;14.468;2023-08-24T05:30:28;34.03;;;23.37;;
76749;SDS011;66447;35.844;14.468;2023-08-24T05:45:29;30.73;;;23.50;;
76749;SDS011;66447;35.844;14.468;2023-08-24T06:00:30;25.70;;;23.02;;
76749;SDS011;66447;35.844;14.468;2023-08-24T06:15:31;27.52;;;22.35;;
76749;SDS011;66447;35.844;14.468;2023-08-24T06:30:31;36.80;;;21.30;;
76749;SDS011;66447;35.844;14.468;2023-08-24T06:45:37;23.83;;;16.80;;
76749;SDS011;66447;35.844;14.468;2023-08-24T07:00:37;18.17;;;14.02;;
76749;SDS011;66447;35.844;14.468;2023-08-24T07:15:38;15.77;;;14.02;;
76749;SDS011;66447;35.844;14.468;2023-08-24T07:30:39;19.07;;;14.87;;
76749;SDS011;66447;35.844;14.468;2023-08-24T07:45:40;20.17;;;15.48;;
76749;SDS011;66447;35.844;14.468;2023-08-24T08:00:41;20.38;;;15.15;;
76749;SDS011;66447;35.844;14.468;2023-08-24T08:15:42;22.73;;;16.85;;
76749;SDS011;66447;35.844;14.468;2023-08-24T08:30:42;22.33;;;16.33;;
76749;SDS011;66447;35.844;14.468;2023-08-24T08:45:44;22.07;;;16.07;;
76749;SDS011;66447;35.844;14.468;2023-08-24T09:00:45;15.65;;;14.05;;
76749;SDS011;66447;35.844;14.468;2023-08-24T09:15:47;22.47;;;17.70;;
76749;SDS011;66447;35.844;14.468;2023-08-24T09:30:53;21.57;;;18.73;;
76749;SDS011;66447;35.844;14.468;2023-08-24T09:45:57;21.37;;;18.20;;
76749;SDS011;66447;35.844;14.468;2023-08-24T10:00:59;18.73;;;16.80;;
76749;SDS011;66447;35.844;14.468;2023-08-24T10:16:02;20.30;;;18.10;;
76749;SDS011;66447;35.844;14.468;2023-08-24T10:31:05;21.57;;;19.27;;
76749;SDS011;66447;35.844;14.468;2023-08-24T10:46:13;21.13;;;18.93;;
76749;SDS011;66447;35.844;14.468;2023-08-24T11:01:18;20.87;;;18.73;;
76749;SDS011;66447;35.844;14.468;2023-08-24T11:16:38;21.50;;;18.93;;
76749;SDS011;66447;35.844;14.468;2023-08-24T11:31:39;20.73;;;17.93;;
76749;SDS011;66447;35.844;14.468;2023-08-24T11:46:40;27.20;;;19.67;;
76749;SDS011;66447;35.844;14.468;2023-08-24T12:01:41;25.05;;;17.60;;
76749;SDS011;66447;35.844;14.468;2023-08-24T12:16:42;22.57;;;20.23;;
76749;SDS011;66447;35.844;14.468;2023-08-24T12:31:43;20.83;;;17.52;;
76749;SDS011;66447;35.844;14.468;2023-08-24T12:46:44;24.43;;;18.50;;
76749;SDS011;66447;35.844;14.468;2023-08-24T13:01:45;22.00;;;19.70;;
76749;SDS011;66447;35.844;14.468;2023-08-24T13:16:47;25.03;;;20.03;;
76749;SDS011;66447;35.844;14.468;2023-08-24T13:31:49;24.37;;;21.90;;
76749;SDS011;66447;35.844;14.468;2023-08-24T13:46:50;23.15;;;20.90;;
76749;SDS011;66447;35.844;14.468;2023-08-24T14:01:51;23.60;;;21.33;;
76749;SDS011;66447;35.844;14.468;2023-08-24T14:16:55;24.73;;;21.90;;
76749;SDS011;66447;35.844;14.468;2023-08-24T14:46:57;22.90;;;20.70;;
76749;SDS011;66447;35.844;14.468;2023-08-24T15:01:58;24.67;;;21.00;;
76749;SDS011;66447;35.844;14.468;2023-08-24T15:17:01;26.10;;;19.30;;
76749;SDS011;66447;35.844;14.468;2023-08-24T15:32:02;23.35;;;19.75;;
76749;SDS011;66447;35.844;14.468;2023-08-24T15:47:03;21.93;;;19.63;;
76749;SDS011;66447;35.844;14.468;2023-08-24T16:02:04;25.33;;;19.97;;
76749;SDS011;66447;35.844;14.468;2023-08-24T16:17:05;24.57;;;21.57;;
76749;SDS011;66447;35.844;14.468;2023-08-24T16:32:06;23.00;;;20.70;;
76749;SDS011;66447;35.844;14.468;2023-08-24T16:47:08;23.20;;;21.00;;
76749;SDS011;66447;35.844;14.468;2023-08-24T17:02:12;24.90;;;22.40;;
76749;SDS011;66447;35.844;14.468;2023-08-24T17:17:13;24.57;;;21.93;;
76749;SDS011;66447;35.844;14.468;2023-08-24T17:32:14;29.20;;;24.17;;
76749;SDS011;66447;35.844;14.468;2023-08-24T17:47:15;28.50;;;23.83;;
76749;SDS011;66447;35.844;14.468;2023-08-24T18:02:20;35.30;;;27.95;;
76749;SDS011;66447;35.844;14.468;2023-08-24T18:17:23;41.80;;;32.00;;
76749;SDS011;66447;35.844;14.468;2023-08-24T18:32:23;35.63;;;31.80;;
76749;SDS011;66447;35.844;14.468;2023-08-24T18:47:24;34.95;;;30.00;;
76749;SDS011;66447;35.844;14.468;2023-08-24T19:02:25;33.67;;;30.25;;
76749;SDS011;66447;35.844;14.468;2023-08-24T19:17:27;42.97;;;36.30;;
76749;SDS011;66447;35.844;14.468;2023-08-24T19:32:28;37.60;;;33.80;;
76749;SDS011;66447;35.844;14.468;2023-08-24T19:47:28;38.05;;;34.30;;
76749;SDS011;66447;35.844;14.468;2023-08-24T20:02:29;39.35;;;35.22;;
76749;SDS011;66447;35.844;14.468;2023-08-24T20:17:30;34.65;;;31.02;;
76749;SDS011;66447;35.844;14.468;2023-08-24T20:32:31;36.97;;;33.15;;
76749;SDS011;66447;35.844;14.468;2023-08-24T20:47:32;41.03;;;36.77;;
76749;SDS011;66447;35.844;14.468;2023-08-24T21:02:33;37.88;;;33.78;;
76749;SDS011;66447;35.844;14.468;2023-08-24T21:17:34;45.67;;;39.67;;
76749;SDS011;66447;35.844;14.468;2023-08-24T21:32:35;44.27;;;39.60;;
76749;SDS011;66447;35.844;14.468;2023-08-24T21:47:36;46.87;;;42.03;;
76749;SDS011;66447;35.844;14.468;2023-08-24T22:02:37;44.70;;;40.25;;
76749;SDS011;66447;35.844;14.468;2023-08-24T22:17:38;47.30;;;42.63;;
76749;SDS011;66447;35.844;14.468;2023-08-24T22:32:39;54.40;;;47.60;;
76749;SDS011;66447;35.844;14.468;2023-08-24T22:47:40;55.20;;;49.37;;
76749;SDS011;66447;35.844;14.468;2023-08-24T23:02:41;54.65;;;48.90;;
76749;SDS011;66447;35.844;14.468;2023-08-24T23:17:42;59.60;;;51.92;;
76749;SDS011;66447;35.844;14.468;2023-08-24T23:32:43;61.70;;;54.23;;
76749;SDS011;66447;35.844;14.468;2023-08-24T23:47:44;59.10;;;52.40;;
